Carnival Splendor — 3EUS — position and weather

sailwx.info

Track history (hours):
 
Tides and Currents Weather Stations Pressure Air Temp Water Temp Dewpoint Dewpoint Depression Visibility Wind Speed Wind Dir Waves Ship Positions

Carnival Splendor

Last reported at 2014-Oct-31 22:32 UTC. Time now 2014-Oct-31 22:43 UTC.
Position N 18°04' W 063°46'.

Length 289 m; draft 8.3 m.

Type: Ship. MMSI: 372808000.

Date/timePositionNaut miles runAvg speedWind from/ knotsBaromVisibWave heightAir tempDewpointWater temp
2014-Oct-31 22:32N 18°04' W 063°46'1919.4
2014-Oct-31 21:33N 18°02' W 063°26'2215.3
2014-Oct-31 20:08N 18°01' W 063°03'0 0.0
2014-Oct-31 19:23N 18°01' W 063°03'0 0.0
2014-Oct-31 18:16N 18°01' W 063°03'0 0.0
2014-Oct-31 14:23N 18°01' W 063°03'0 0.0
2014-Oct-31 12:09N 18°01' W 063°03'0 0.6
2014-Oct-31 11:20N 18°00' W 063°03'4 4.6
2014-Oct-31 10:30N 17°59' W 063°07'6 5.2
2014-Oct-31 09:18N 17°55' W 063°02'722.2
2014-Oct-31 09:00N 17°48' W 063°00'4 8.5 160 / 201009.010.8 28.018.030.0
2014-Oct-31 08:31N 17°51' W 062°57'31 0.7
2014-Oct-29 11:11N 17°20' W 062°58'421.7
2014-Oct-29 11:00N 17°18' W 062°54'1923.9 1012.0 5.4 0.527.021.025.0
2014-Oct-29 10:12N 17°33' W 063°07'1015.5
2014-Oct-29 09:33N 17°41' W 063°12'1515.3
2014-Oct-29 08:33N 17°49' W 063°26'10 9.8
2014-Oct-29 07:32N 17°53' W 063°35'10 9.7
2014-Oct-29 06:33N 17°57' W 063°44'10 9.4
2014-Oct-29 05:32N 18°02' W 063°53'  
2014-Oct-26 11:00N 30°36' W 069°30'42417.0 010 / 151009.0 5.4 0.524.016.026.0
2014-Oct-25 10:00N 37°18' W 072°12'4423.1 320 / 231011.0 5.4 0.518.011.020.0
2014-Oct-25 08:05N 37°60' W 072°29'1617.9
2014-Oct-25 07:12N 38°15' W 072°35'1218.1
2014-Oct-25 06:33N 38°26' W 072°40'1818.3
2014-Oct-25 05:33N 38°43' W 072°47'2018.0
2014-Oct-25 04:26N 39°02' W 072°55'1618.0
2014-Oct-25 03:32N 39°18' W 073°02'3917.9
2014-Oct-25 01:22N 39°55' W 073°18'1417.2
2014-Oct-25 00:33N 40°07' W 073°27'1917.1
2014-Oct-24 23:26N 40°21' W 073°43'1213.5
2014-Oct-24 22:33N 40°29' W 073°55'1313.0
2014-Oct-24 21:33N 40°41' W 074°02'5 5.0
2014-Oct-24 20:30N 40°46' W 073°60'0 0.0
2014-Oct-24 19:32N 40°46' W 073°60'0 0.0
2014-Oct-24 18:29N 40°46' W 073°60'0 0.0
2014-Oct-24 17:22N 40°46' W 073°60'0 0.0
2014-Oct-24 16:31N 40°46' W 073°60'0 0.0
2014-Oct-24 15:25N 40°46' W 073°60'0 0.0
2014-Oct-24 14:33N 40°46' W 073°60'0 0.0
2014-Oct-24 13:33N 40°46' W 073°60'0 0.0
2014-Oct-24 12:34N 40°46' W 073°60'0 0.0
2014-Oct-24 11:34N 40°46' W 073°60'1 1.2
2014-Oct-24 10:33N 40°45' W 074°01'8 8.5
2014-Oct-24 09:33N 40°37' W 074°03'1313.1
2014-Oct-24 08:33N 40°28' W 073°50'8 7.6
2014-Oct-24 07:30N 40°20' W 073°47'4415.1
2014-Oct-24 04:33N 39°36' W 073°40'28216.1
2014-Oct-23 11:00N 35°00' W 074°54'   290 / 401010.0 5.4 2.015.0 8.028.0
Track history (hours):
 
Tides and Currents Weather Stations Pressure Air Temp Water Temp Dewpoint Dewpoint Depression Visibility Wind Speed Wind Dir Waves Ship Positions

Carnival Splendor

Last reported at 2014-Oct-31 22:32 UTC. Time now 2014-Oct-31 22:43 UTC.
Position N 18°04' W 063°46'.

Length 289 m; draft 8.3 m.

Type: Ship. MMSI: 372808000.

Date/timePositionNaut miles runAvg speedWind from/ knotsBaromVisibWave heightAir tempDewpointWater temp
2014-Oct-31 22:32N 18°04' W 063°46'1919.4
2014-Oct-31 21:33N 18°02' W 063°26'2215.3
2014-Oct-31 20:08N 18°01' W 063°03'0 0.0
2014-Oct-31 19:23N 18°01' W 063°03'0 0.0
2014-Oct-31 18:16N 18°01' W 063°03'0 0.0
2014-Oct-31 14:23N 18°01' W 063°03'0 0.0
2014-Oct-31 12:09N 18°01' W 063°03'0 0.6
2014-Oct-31 11:20N 18°00' W 063°03'4 4.6
2014-Oct-31 10:30N 17°59' W 063°07'6 5.2
2014-Oct-31 09:18N 17°55' W 063°02'722.2
2014-Oct-31 09:00N 17°48' W 063°00'4 8.5 160 / 201009.010.8 28.018.030.0
2014-Oct-31 08:31N 17°51' W 062°57'31 0.7
2014-Oct-29 11:11N 17°20' W 062°58'421.7
2014-Oct-29 11:00N 17°18' W 062°54'1923.9 1012.0 5.4 0.527.021.025.0
2014-Oct-29 10:12N 17°33' W 063°07'1015.5
2014-Oct-29 09:33N 17°41' W 063°12'1515.3
2014-Oct-29 08:33N 17°49' W 063°26'10 9.8
2014-Oct-29 07:32N 17°53' W 063°35'10 9.7
2014-Oct-29 06:33N 17°57' W 063°44'10 9.4
2014-Oct-29 05:32N 18°02' W 063°53'  
2014-Oct-26 11:00N 30°36' W 069°30'42417.0 010 / 151009.0 5.4 0.524.016.026.0
2014-Oct-25 10:00N 37°18' W 072°12'4423.1 320 / 231011.0 5.4 0.518.011.020.0
2014-Oct-25 08:05N 37°60' W 072°29'1617.9
2014-Oct-25 07:12N 38°15' W 072°35'1218.1
2014-Oct-25 06:33N 38°26' W 072°40'1818.3
2014-Oct-25 05:33N 38°43' W 072°47'2018.0
2014-Oct-25 04:26N 39°02' W 072°55'1618.0
2014-Oct-25 03:32N 39°18' W 073°02'3917.9
2014-Oct-25 01:22N 39°55' W 073°18'1417.2
2014-Oct-25 00:33N 40°07' W 073°27'1917.1
2014-Oct-24 23:26N 40°21' W 073°43'1213.5
2014-Oct-24 22:33N 40°29' W 073°55'1313.0
2014-Oct-24 21:33N 40°41' W 074°02'5 5.0
2014-Oct-24 20:30N 40°46' W 073°60'0 0.0
2014-Oct-24 19:32N 40°46' W 073°60'0 0.0
2014-Oct-24 18:29N 40°46' W 073°60'0 0.0
2014-Oct-24 17:22N 40°46' W 073°60'0 0.0
2014-Oct-24 16:31N 40°46' W 073°60'0 0.0
2014-Oct-24 15:25N 40°46' W 073°60'0 0.0
2014-Oct-24 14:33N 40°46' W 073°60'0 0.0
2014-Oct-24 13:33N 40°46' W 073°60'0 0.0
2014-Oct-24 12:34N 40°46' W 073°60'0 0.0
2014-Oct-24 11:34N 40°46' W 073°60'1 1.2
2014-Oct-24 10:33N 40°45' W 074°01'8 8.5
2014-Oct-24 09:33N 40°37' W 074°03'1313.1
2014-Oct-24 08:33N 40°28' W 073°50'8 7.6
2014-Oct-24 07:30N 40°20' W 073°47'4415.1
2014-Oct-24 04:33N 39°36' W 073°40'28216.1
2014-Oct-23 11:00N 35°00' W 074°54'   290 / 401010.0 5.4 2.015.0 8.028.0

Dump ship's entire track history